Columbia — WDD6400 — position and weather

sailwx.info

Track history (hours):
 
Tides and Currents Weather Stations Pressure Air Temp Water Temp Dewpoint Dewpoint Depression Visibility Wind Speed Wind Dir Waves Ship Positions

Columbia

Owner: OSG Ship Management Inc., Tampa, FL. More information available from US FCC via Universal Licensing System and Coast Guard Vessel Documentation Center.

Last reported at 2014-Dec-20 01:33 UTC. Time now 2014-Dec-20 05:50 UTC.
Position N 27°46' W 082°31'.

Length 194 m; draft 8.9 m.

Type: Towing. MMSI: 367172440.

Date/timePositionNaut miles runAvg speedWind from/ knotsBaromVisibWave heightAir tempDewpointWater temp
2014-Dec-20 01:33N 27°46' W 082°31'9 8.6
2014-Dec-20 00:33N 27°54' W 082°26'3 2.5
2014-Dec-19 23:34N 27°56' W 082°27'0 0.0
2014-Dec-19 22:33N 27°56' W 082°27'0 0.4
2014-Dec-19 21:34N 27°56' W 082°27'0 0.0
2014-Dec-19 20:34N 27°56' W 082°27'0 0.0
2014-Dec-19 19:33N 27°56' W 082°27'0 0.0
2014-Dec-19 18:33N 27°56' W 082°27'0 0.0
2014-Dec-19 17:33N 27°56' W 082°27'0 0.0
2014-Dec-19 16:33N 27°56' W 082°27'0 0.0
2014-Dec-19 15:33N 27°56' W 082°27'0 0.0
2014-Dec-19 14:33N 27°56' W 082°27'0 0.0
2014-Dec-19 13:33N 27°56' W 082°27'0 0.0
2014-Dec-19 12:33N 27°56' W 082°27'0 0.0
2014-Dec-19 11:33N 27°56' W 082°27'0 0.0
2014-Dec-19 10:33N 27°56' W 082°27'0 0.0
2014-Dec-19 09:33N 27°56' W 082°27'0 0.0
2014-Dec-19 08:33N 27°56' W 082°27'0 0.0
2014-Dec-19 07:33N 27°56' W 082°27'0 0.0
2014-Dec-19 06:33N 27°56' W 082°27'0 0.0
2014-Dec-19 05:34N 27°56' W 082°27'0 0.0
2014-Dec-19 04:34N 27°56' W 082°27'0 0.0
2014-Dec-19 03:33N 27°56' W 082°27'0 0.0
2014-Dec-19 02:33N 27°56' W 082°27'0 0.0
2014-Dec-19 01:33N 27°56' W 082°27'0 0.4
2014-Dec-19 00:34N 27°56' W 082°27'0 0.4
2014-Dec-18 23:33N 27°56' W 082°27'6 6.1
2014-Dec-18 22:33N 27°50' W 082°27'8 8.3
2014-Dec-18 21:33N 27°43' W 082°32'  
2014-Dec-11 18:04N 27°46' W 082°31'5 8.7
2014-Dec-11 17:33N 27°48' W 082°27'8 7.6
2014-Dec-11 16:33N 27°56' W 082°27'0 0.0
2014-Dec-11 15:33N 27°56' W 082°27'1 1.1
2014-Dec-11 14:31N 27°57' W 082°27'0 0.0
2014-Dec-11 13:34N 27°57' W 082°27'0 0.0
2014-Dec-11 12:33N 27°57' W 082°27'0 0.0
2014-Dec-11 11:33N 27°57' W 082°27'0 0.0
2014-Dec-11 10:33N 27°57' W 082°27'0 0.0
2014-Dec-11 09:33N 27°57' W 082°27'0 0.0
2014-Dec-11 08:33N 27°57' W 082°27'0 0.0
2014-Dec-11 07:33N 27°57' W 082°27'0 0.0
2014-Dec-11 06:33N 27°57' W 082°27'0 0.0
2014-Dec-11 05:33N 27°57' W 082°27'0 0.0
2014-Dec-11 04:33N 27°57' W 082°27'0 0.0
2014-Dec-11 03:33N 27°57' W 082°27'0 0.0
2014-Dec-11 02:33N 27°57' W 082°27'0 0.0
2014-Dec-11 01:33N 27°57' W 082°27'0 0.0
2014-Dec-11 00:33N 27°57' W 082°27'0 0.0
2014-Dec-10 23:33N 27°57' W 082°27'0 0.0
2014-Dec-10 22:33N 27°57' W 082°27'0 0.0
2014-Dec-10 21:33N 27°57' W 082°27'0 0.0
2014-Dec-10 20:33N 27°57' W 082°27'0 0.0
2014-Dec-10 19:33N 27°57' W 082°27'0 0.0
2014-Dec-10 18:33N 27°57' W 082°27'1 1.1
2014-Dec-10 17:33N 27°56' W 082°27'0 0.2
2014-Dec-10 16:33N 27°56' W 082°27'4 3.8
2014-Dec-10 15:33N 27°52' W 082°27'8 7.7
2014-Dec-10 14:33N 27°46' W 082°31'8 8.1
2014-Dec-10 13:33N 27°39' W 082°37'  
Track history (hours):
 
Tides and Currents Weather Stations Pressure Air Temp Water Temp Dewpoint Dewpoint Depression Visibility Wind Speed Wind Dir Waves Ship Positions

Columbia

Owner: OSG Ship Management Inc., Tampa, FL. More information available from US FCC via Universal Licensing System and Coast Guard Vessel Documentation Center.

Last reported at 2014-Dec-20 01:33 UTC. Time now 2014-Dec-20 05:50 UTC.
Position N 27°46' W 082°31'.

Length 194 m; draft 8.9 m.

Type: Towing. MMSI: 367172440.

Date/timePositionNaut miles runAvg speedWind from/ knotsBaromVisibWave heightAir tempDewpointWater temp
2014-Dec-20 01:33N 27°46' W 082°31'9 8.6
2014-Dec-20 00:33N 27°54' W 082°26'3 2.5
2014-Dec-19 23:34N 27°56' W 082°27'0 0.0
2014-Dec-19 22:33N 27°56' W 082°27'0 0.4
2014-Dec-19 21:34N 27°56' W 082°27'0 0.0
2014-Dec-19 20:34N 27°56' W 082°27'0 0.0
2014-Dec-19 19:33N 27°56' W 082°27'0 0.0
2014-Dec-19 18:33N 27°56' W 082°27'0 0.0
2014-Dec-19 17:33N 27°56' W 082°27'0 0.0
2014-Dec-19 16:33N 27°56' W 082°27'0 0.0
2014-Dec-19 15:33N 27°56' W 082°27'0 0.0
2014-Dec-19 14:33N 27°56' W 082°27'0 0.0
2014-Dec-19 13:33N 27°56' W 082°27'0 0.0
2014-Dec-19 12:33N 27°56' W 082°27'0 0.0
2014-Dec-19 11:33N 27°56' W 082°27'0 0.0
2014-Dec-19 10:33N 27°56' W 082°27'0 0.0
2014-Dec-19 09:33N 27°56' W 082°27'0 0.0
2014-Dec-19 08:33N 27°56' W 082°27'0 0.0
2014-Dec-19 07:33N 27°56' W 082°27'0 0.0
2014-Dec-19 06:33N 27°56' W 082°27'0 0.0
2014-Dec-19 05:34N 27°56' W 082°27'0 0.0
2014-Dec-19 04:34N 27°56' W 082°27'0 0.0
2014-Dec-19 03:33N 27°56' W 082°27'0 0.0
2014-Dec-19 02:33N 27°56' W 082°27'0 0.0
2014-Dec-19 01:33N 27°56' W 082°27'0 0.4
2014-Dec-19 00:34N 27°56' W 082°27'0 0.4
2014-Dec-18 23:33N 27°56' W 082°27'6 6.1
2014-Dec-18 22:33N 27°50' W 082°27'8 8.3
2014-Dec-18 21:33N 27°43' W 082°32'  
2014-Dec-11 18:04N 27°46' W 082°31'5 8.7
2014-Dec-11 17:33N 27°48' W 082°27'8 7.6
2014-Dec-11 16:33N 27°56' W 082°27'0 0.0
2014-Dec-11 15:33N 27°56' W 082°27'1 1.1
2014-Dec-11 14:31N 27°57' W 082°27'0 0.0
2014-Dec-11 13:34N 27°57' W 082°27'0 0.0
2014-Dec-11 12:33N 27°57' W 082°27'0 0.0
2014-Dec-11 11:33N 27°57' W 082°27'0 0.0
2014-Dec-11 10:33N 27°57' W 082°27'0 0.0
2014-Dec-11 09:33N 27°57' W 082°27'0 0.0
2014-Dec-11 08:33N 27°57' W 082°27'0 0.0
2014-Dec-11 07:33N 27°57' W 082°27'0 0.0
2014-Dec-11 06:33N 27°57' W 082°27'0 0.0
2014-Dec-11 05:33N 27°57' W 082°27'0 0.0
2014-Dec-11 04:33N 27°57' W 082°27'0 0.0
2014-Dec-11 03:33N 27°57' W 082°27'0 0.0
2014-Dec-11 02:33N 27°57' W 082°27'0 0.0
2014-Dec-11 01:33N 27°57' W 082°27'0 0.0
2014-Dec-11 00:33N 27°57' W 082°27'0 0.0
2014-Dec-10 23:33N 27°57' W 082°27'0 0.0
2014-Dec-10 22:33N 27°57' W 082°27'0 0.0
2014-Dec-10 21:33N 27°57' W 082°27'0 0.0
2014-Dec-10 20:33N 27°57' W 082°27'0 0.0
2014-Dec-10 19:33N 27°57' W 082°27'0 0.0
2014-Dec-10 18:33N 27°57' W 082°27'1 1.1
2014-Dec-10 17:33N 27°56' W 082°27'0 0.2
2014-Dec-10 16:33N 27°56' W 082°27'4 3.8
2014-Dec-10 15:33N 27°52' W 082°27'8 7.7
2014-Dec-10 14:33N 27°46' W 082°31'8 8.1
2014-Dec-10 13:33N 27°39' W 082°37'  

Dump ship's entire track history